Time;durP1;ratioP1;P1;durP2;ratioP2;P2;SDS_P1;SDS_P2;PMS_P1;PMS_P2;Temp;Humidity;BMP_temperature;BMP_pressure;BME280_temperature;BME280_humidity;BME280_pressure;Samples;Min_cycle;Max_cycle;Signal;HPM_P1;HPM_P2
2022/04/16 00:00:19;;;;;;;19.20;10.15;;;;;;;;;;4990467;28;21328;-68
2022/04/16 00:02:47;;;;;;;23.50;12.40;;;;;;;;;;4991562;28;20033;-68
2022/04/16 00:05:13;;;;;;;19.80;11.13;;;;;;;;;;4989849;28;20529;-70
2022/04/16 00:07:38;;;;;;;25.35;11.98;;;;;;;;;;4989508;28;20026;-67
2022/04/16 00:10:04;;;;;;;20.67;11.27;;;;;;;;;;4985638;28;20049;-68
2022/04/16 00:12:29;;;;;;;17.35;10.77;;;;;;;;;;4990858;28;20019;-69
2022/04/16 00:14:54;;;;;;;19.23;10.27;;;;;;;;;;4990737;28;20407;-70
2022/04/16 00:17:20;;;;;;;23.42;11.63;;;;;;;;;;4991247;28;20025;-70
2022/04/16 00:19:45;;;;;;;18.17;11.60;;;;;;;;;;4990014;28;20022;-70
2022/04/16 00:22:12;;;;;;;20.83;11.73;;;;;;;;;;4990008;28;20069;-70
2022/04/16 00:24:37;;;;;;;20.73;12.05;;;;;;;;;;5018736;23;20408;-70
2022/04/16 00:27:03;;;;;;;22.45;12.00;;;;;;;;;;4989794;28;20162;-70
2022/04/16 00:29:29;;;;;;;19.42;11.93;;;;;;;;;;4988936;28;20030;-70
2022/04/16 00:31:54;;;;;;;21.33;11.73;;;;;;;;;;4987552;28;20038;-71
2022/04/16 00:34:19;;;;;;;24.90;13.30;;;;;;;;;;4989307;28;20022;-71
2022/04/16 00:36:44;;;;;;;25.63;12.20;;;;;;;;;;4989433;28;20674;-68
2022/04/16 00:39:10;;;;;;;19.47;10.70;;;;;;;;;;4989288;28;20025;-68
2022/04/16 00:41:35;;;;;;;27.95;14.75;;;;;;;;;;4970593;28;20288;-68
2022/04/16 00:44:00;;;;;;;25.10;12.68;;;;;;;;;;4989047;28;20069;-68
2022/04/16 00:46:26;;;;;;;20.20;10.57;;;;;;;;;;4988858;28;20073;-69
2022/04/16 00:48:51;;;;;;;21.10;12.13;;;;;;;;;;4990907;28;20642;-68
2022/04/16 00:51:16;;;;;;;22.43;12.63;;;;;;;;;;4989421;28;20439;-68
2022/04/16 00:53:41;;;;;;;24.35;12.25;;;;;;;;;;4991683;28;20277;-68
2022/04/16 00:56:07;;;;;;;23.17;12.15;;;;;;;;;;4989084;28;20030;-68
2022/04/16 00:58:32;;;;;;;24.35;13.80;;;;;;;;;;4989942;28;20479;-68
2022/04/16 01:00:58;;;;;;;22.37;12.10;;;;;;;;;;4984331;28;20034;-68
2022/04/16 01:03:23;;;;;;;22.60;12.55;;;;;;;;;;4992538;28;20327;-68
2022/04/16 01:05:48;;;;;;;21.13;13.10;;;;;;;;;;4989024;28;20034;-68
2022/04/16 01:08:17;;;;;;;21.60;13.05;;;;;;;;;;4989796;28;20026;-69
2022/04/16 01:10:42;;;;;;;24.00;12.70;;;;;;;;;;4970750;28;20027;-68
2022/04/16 01:13:07;;;;;;;25.97;13.87;;;;;;;;;;4991831;28;20034;-68
2022/04/16 01:15:33;;;;;;;26.58;13.55;;;;;;;;;;4990010;28;20852;-68
2022/04/16 01:18:02;;;;;;;25.27;13.38;;;;;;;;;;4989631;28;20531;-68
2022/04/16 01:20:27;;;;;;;25.25;13.77;;;;;;;;;;4985640;28;20034;-68
2022/04/16 01:22:56;;;;;;;22.45;13.27;;;;;;;;;;4989495;28;20019;-68
2022/04/16 01:25:24;;;;;;;24.73;13.23;;;;;;;;;;4987213;28;20018;-68
2022/04/16 01:27:49;;;;;;;25.23;14.65;;;;;;;;;;4989342;28;20510;-68
2022/04/16 01:30:20;;;;;;;20.57;12.87;;;;;;;;;;4991838;28;20026;-68
2022/04/16 01:32:48;;;;;;;22.73;13.38;;;;;;;;;;4989881;28;20274;-68
2022/04/16 01:35:14;;;;;;;26.52;12.60;;;;;;;;;;4991208;28;20026;-68
2022/04/16 01:37:39;;;;;;;31.33;13.50;;;;;;;;;;4984605;28;20026;-68
2022/04/16 01:40:05;;;;;;;28.20;14.35;;;;;;;;;;4989178;28;20026;-68
2022/04/16 01:42:32;;;;;;;25.30;13.23;;;;;;;;;;4988636;28;20030;-68
2022/04/16 01:45:09;;;;;;;28.00;14.68;;;;;;;;;;4991775;28;20045;-68
2022/04/16 01:47:36;;;;;;;24.02;12.77;;;;;;;;;;4988812;28;20596;-68
2022/04/16 01:50:01;;;;;;;26.30;13.80;;;;;;;;;;4985121;28;20021;-68
2022/04/16 01:52:26;;;;;;;27.45;14.57;;;;;;;;;;4986819;28;20018;-68
2022/04/16 01:54:52;;;;;;;26.40;14.13;;;;;;;;;;4989289;28;20029;-68
2022/04/16 01:57:20;;;;;;;27.15;14.50;;;;;;;;;;4994711;28;20698;-68
2022/04/16 01:59:46;;;;;;;23.95;13.10;;;;;;;;;;4982039;28;20030;-68
2022/04/16 02:02:11;;;;;;;25.50;15.20;;;;;;;;;;4988722;28;20088;-68
2022/04/16 02:04:36;;;;;;;31.13;14.73;;;;;;;;;;4982160;28;20022;-68
2022/04/16 02:07:02;;;;;;;31.30;14.77;;;;;;;;;;4992600;28;20021;-68
2022/04/16 02:09:27;;;;;;;28.70;14.90;;;;;;;;;;4988668;28;20359;-68
2022/04/16 02:11:52;;;;;;;32.13;15.05;;;;;;;;;;4989583;28;20046;-68
2022/04/16 02:14:17;;;;;;;31.17;16.17;;;;;;;;;;4983401;28;20077;-69
2022/04/16 02:16:42;;;;;;;26.67;15.38;;;;;;;;;;4988820;28;20304;-68
2022/04/16 02:19:08;;;;;;;29.47;15.50;;;;;;;;;;4994292;28;20022;-68
2022/04/16 02:21:33;;;;;;;30.58;16.25;;;;;;;;;;4998815;28;20757;-68
2022/04/16 02:23:59;;;;;;;31.50;14.30;;;;;;;;;;4988258;28;20092;-68
2022/04/16 02:26:26;;;;;;;30.25;15.60;;;;;;;;;;4988394;28;20125;-68
2022/04/16 02:28:51;;;;;;;27.42;16.17;;;;;;;;;;4987039;28;20019;-68
2022/04/16 02:31:16;;;;;;;26.63;15.30;;;;;;;;;;4988551;28;20033;-68
2022/04/16 02:33:41;;;;;;;32.13;16.13;;;;;;;;;;4990139;28;20419;-70
2022/04/16 02:36:07;;;;;;;27.20;15.33;;;;;;;;;;4992580;28;20304;-70
2022/04/16 02:38:33;;;;;;;29.85;15.27;;;;;;;;;;4992844;28;20273;-71
2022/04/16 02:40:58;;;;;;;29.20;15.48;;;;;;;;;;4991462;28;20045;-70
2022/04/16 02:43:23;;;;;;;29.77;16.27;;;;;;;;;;4988818;28;20054;-71
2022/04/16 02:48:33;;;;;;;29.92;15.20;;;;;;;;;;4992000;28;20272;-71
2022/04/16 02:50:58;;;;;;;31.83;15.48;;;;;;;;;;4990768;28;20018;-71
2022/04/16 02:53:26;;;;;;;29.23;15.93;;;;;;;;;;4990113;28;20014;-71
2022/04/16 02:55:51;;;;;;;35.05;16.70;;;;;;;;;;4989376;28;20019;-71
2022/04/16 02:58:16;;;;;;;25.88;14.75;;;;;;;;;;4991827;28;20030;-71
2022/04/16 03:00:42;;;;;;;30.57;15.83;;;;;;;;;;4991401;28;20112;-71
2022/04/16 03:03:08;;;;;;;33.92;15.82;;;;;;;;;;4992702;28;20284;-68
2022/04/16 03:05:34;;;;;;;32.38;17.50;;;;;;;;;;4989178;28;20022;-68
2022/04/16 03:08:00;;;;;;;30.45;14.45;;;;;;;;;;4990818;28;20041;-68
2022/04/16 03:10:25;;;;;;;30.20;15.07;;;;;;;;;;4990336;28;20479;-68
2022/04/16 03:12:51;;;;;;;34.72;15.65;;;;;;;;;;4989653;28;20026;-68
2022/04/16 03:18:01;;;;;;;31.27;14.70;;;;;;;;;;4989363;28;20077;-68
2022/04/16 03:20:29;;;;;;;28.45;15.05;;;;;;;;;;4989466;28;20046;-68
2022/04/16 03:22:55;;;;;;;31.13;16.25;;;;;;;;;;4986675;28;20093;-68
2022/04/16 03:25:20;;;;;;;28.83;15.70;;;;;;;;;;4991515;28;20483;-68
2022/04/16 03:27:45;;;;;;;34.33;16.00;;;;;;;;;;4995401;28;20378;-68
2022/04/16 03:30:11;;;;;;;32.42;16.67;;;;;;;;;;4991430;28;20486;-68
2022/04/16 03:32:39;;;;;;;31.55;15.10;;;;;;;;;;4989153;28;20032;-68
2022/04/16 03:35:05;;;;;;;26.70;15.63;;;;;;;;;;4991403;28;20030;-68
2022/04/16 03:37:32;;;;;;;26.15;14.15;;;;;;;;;;4996604;28;20390;-68
2022/04/16 03:39:57;;;;;;;30.13;15.38;;;;;;;;;;4990241;28;20383;-68
2022/04/16 03:42:22;;;;;;;31.53;16.53;;;;;;;;;;4989821;28;20026;-68
2022/04/16 03:44:48;;;;;;;29.92;15.48;;;;;;;;;;4986933;28;20372;-68
2022/04/16 03:47:13;;;;;;;31.17;15.90;;;;;;;;;;4989877;28;20022;-68
2022/04/16 03:49:38;;;;;;;34.37;17.37;;;;;;;;;;4990007;28;20269;-68
2022/04/16 03:52:04;;;;;;;38.17;18.30;;;;;;;;;;4992482;28;20273;-68
2022/04/16 03:59:59;;;;;;;35.65;16.85;;;;;;;;;;4989351;28;20092;-68
2022/04/16 04:02:25;;;;;;;34.15;17.38;;;;;;;;;;4988505;28;20030;-68
2022/04/16 04:04:50;;;;;;;30.52;17.25;;;;;;;;;;4990332;28;20076;-68
2022/04/16 04:07:16;;;;;;;36.80;16.97;;;;;;;;;;4992170;28;20518;-69
2022/04/16 04:09:41;;;;;;;36.78;17.35;;;;;;;;;;4990749;28;20297;-69
2022/04/16 04:12:12;;;;;;;35.27;15.90;;;;;;;;;;4990927;28;20109;-69
2022/04/16 04:14:39;;;;;;;32.50;17.48;;;;;;;;;;4985801;28;20288;-69
2022/04/16 04:17:06;;;;;;;34.88;17.35;;;;;;;;;;4988558;28;20061;-69
2022/04/16 04:19:31;;;;;;;34.00;17.38;;;;;;;;;;4990854;28;20065;-69
2022/04/16 04:21:57;;;;;;;33.15;17.23;;;;;;;;;;4990082;28;20475;-69
2022/04/16 04:24:22;;;;;;;27.67;15.53;;;;;;;;;;4996332;28;20109;-69
2022/04/16 04:26:47;;;;;;;29.90;15.80;;;;;;;;;;4995666;28;20273;-69
2022/04/16 04:29:12;;;;;;;30.20;16.07;;;;;;;;;;4989468;28;20030;-69
2022/04/16 04:31:37;;;;;;;35.15;18.40;;;;;;;;;;4987222;28;20274;-69
2022/04/16 04:34:02;;;;;;;37.40;17.90;;;;;;;;;;4987725;28;20160;-69
2022/04/16 04:36:28;;;;;;;33.28;16.08;;;;;;;;;;4992164;28;20666;-69
2022/04/16 04:38:53;;;;;;;29.57;16.67;;;;;;;;;;4990632;28;20037;-69
2022/04/16 04:41:18;;;;;;;36.60;19.00;;;;;;;;;;4989558;28;20297;-69
2022/04/16 04:43:43;;;;;;;30.95;17.45;;;;;;;;;;4988701;28;20289;-69
2022/04/16 04:46:08;;;;;;;37.33;18.27;;;;;;;;;;4984312;28;20603;-69
2022/04/16 04:48:34;;;;;;;37.00;18.60;;;;;;;;;;4991650;28;20268;-69
2022/04/16 04:50:59;;;;;;;32.75;17.95;;;;;;;;;;4994000;28;20278;-69
2022/04/16 04:53:24;;;;;;;33.67;16.83;;;;;;;;;;4995329;28;20038;-71
2022/04/16 04:55:49;;;;;;;37.38;18.33;;;;;;;;;;4991172;28;20359;-69
2022/04/16 04:58:14;;;;;;;34.33;17.17;;;;;;;;;;4974998;28;20506;-71
2022/04/16 05:00:39;;;;;;;34.97;17.13;;;;;;;;;;4986423;28;20351;-69
2022/04/16 05:03:05;;;;;;;34.35;17.58;;;;;;;;;;4993043;28;20368;-69
2022/04/16 05:05:30;;;;;;;37.63;17.90;;;;;;;;;;4992741;28;22076;-69
2022/04/16 05:07:55;;;;;;;32.63;17.23;;;;;;;;;;4991789;28;20061;-74
2022/04/16 05:10:21;;;;;;;37.00;18.20;;;;;;;;;;4987114;28;20117;-68
2022/04/16 05:12:47;;;;;;;33.92;17.20;;;;;;;;;;4985443;28;20716;-68
2022/04/16 05:15:12;;;;;;;31.85;17.50;;;;;;;;;;4967904;28;20030;-70
2022/04/16 05:17:37;;;;;;;36.28;17.85;;;;;;;;;;4986992;28;20474;-69
2022/04/16 05:20:04;;;;;;;31.52;18.25;;;;;;;;;;4988456;28;20053;-70
2022/04/16 05:22:29;;;;;;;31.58;16.52;;;;;;;;;;4987842;28;20396;-69
2022/04/16 05:24:54;;;;;;;32.20;16.40;;;;;;;;;;4987531;28;20037;-69
2022/04/16 05:27:20;;;;;;;35.85;17.00;;;;;;;;;;4990217;28;20157;-72
2022/04/16 05:32:42;;;;;;;30.17;16.52;;;;;;;;;;4956135;28;20666;-69
2022/04/16 05:35:09;;;;;;;37.25;18.30;;;;;;;;;;4986199;28;20010;-69
2022/04/16 05:37:34;;;;;;;36.33;18.42;;;;;;;;;;4989982;28;20148;-72
2022/04/16 05:40:00;;;;;;;34.40;15.98;;;;;;;;;;4983494;28;20449;-69
2022/04/16 05:42:25;;;;;;;31.10;16.45;;;;;;;;;;4984222;28;20606;-68
2022/04/16 05:44:50;;;;;;;34.72;17.33;;;;;;;;;;4985336;28;20025;-69
2022/04/16 05:47:15;;;;;;;32.08;17.00;;;;;;;;;;4988981;28;20027;-68
2022/04/16 05:49:40;;;;;;;46.33;16.83;;;;;;;;;;4986507;28;20018;-70
2022/04/16 05:52:06;;;;;;;31.13;16.85;;;;;;;;;;4986105;28;20372;-68
2022/04/16 05:54:32;;;;;;;33.83;17.42;;;;;;;;;;4989397;28;20034;-69
2022/04/16 05:56:57;;;;;;;35.22;18.20;;;;;;;;;;4984599;28;20076;-70
2022/04/16 05:59:22;;;;;;;31.95;15.55;;;;;;;;;;4987713;28;20462;-69
2022/04/16 06:01:48;;;;;;;38.72;16.73;;;;;;;;;;4986621;28;20024;-69
2022/04/16 06:04:13;;;;;;;32.97;15.95;;;;;;;;;;4991432;28;20096;-72
2022/04/16 06:06:38;;;;;;;29.37;15.13;;;;;;;;;;4983425;28;20514;-68
2022/04/16 06:09:03;;;;;;;32.72;15.32;;;;;;;;;;4992475;28;20273;-70
2022/04/16 06:11:30;;;;;;;30.03;15.43;;;;;;;;;;4989836;28;20026;-68
2022/04/16 06:13:55;;;;;;;34.00;16.52;;;;;;;;;;4999964;28;20264;-74
2022/04/16 06:16:20;;;;;;;32.40;16.27;;;;;;;;;;4987678;28;20197;-68
2022/04/16 06:18:45;;;;;;;34.63;17.77;;;;;;;;;;4978584;28;20281;-72
2022/04/16 06:21:11;;;;;;;33.23;16.17;;;;;;;;;;4976740;28;20377;-68
2022/04/16 06:23:42;;;;;;;36.45;19.52;;;;;;;;;;4996301;23;20309;-86
2022/04/16 06:26:08;;;;;;;31.27;15.52;;;;;;;;;;4988722;28;20022;-86
2022/04/16 06:28:33;;;;;;;38.08;17.55;;;;;;;;;;5001325;28;20059;-87
2022/04/16 06:30:58;;;;;;;31.92;16.17;;;;;;;;;;5004484;28;20093;-84
2022/04/16 06:33:24;;;;;;;33.00;15.10;;;;;;;;;;5005858;28;20031;-86
2022/04/16 06:35:52;;;;;;;34.17;16.30;;;;;;;;;;4987865;28;20030;-86
2022/04/16 06:38:18;;;;;;;39.30;16.58;;;;;;;;;;5001786;28;20032;-86
2022/04/16 06:40:47;;;;;;;28.48;14.43;;;;;;;;;;4985396;28;20007;-89
2022/04/16 06:43:14;;;;;;;30.42;16.02;;;;;;;;;;4993523;28;20023;-88
2022/04/16 06:45:39;;;;;;;33.50;16.45;;;;;;;;;;4982909;28;20086;-90
2022/04/16 06:48:05;;;;;;;31.15;16.10;;;;;;;;;;5002081;28;20015;-88
2022/04/16 06:50:30;;;;;;;31.65;15.30;;;;;;;;;;5001293;28;20017;-84
2022/04/16 06:53:28;;;;;;;30.02;15.43;;;;;;;;;;4998706;28;20053;-86
2022/04/16 06:55:53;;;;;;;30.02;14.40;;;;;;;;;;4927895;28;20049;-88
2022/04/16 06:58:19;;;;;;;25.52;14.55;;;;;;;;;;4975907;28;20585;-86
2022/04/16 07:00:44;;;;;;;24.35;15.15;;;;;;;;;;4969995;28;20390;-88
2022/04/16 07:03:10;;;;;;;27.67;15.02;;;;;;;;;;4968052;28;20025;-89
2022/04/16 07:05:35;;;;;;;25.98;14.55;;;;;;;;;;4982744;28;20018;-89
2022/04/16 07:08:00;;;;;;;20.88;12.77;;;;;;;;;;4989515;28;20026;-86
2022/04/16 07:10:28;;;;;;;24.70;13.73;;;;;;;;;;4991756;28;20025;-88
2022/04/16 07:12:53;;;;;;;20.30;11.40;;;;;;;;;;4966904;28;20361;-86
2022/04/16 07:15:19;;;;;;;29.23;13.30;;;;;;;;;;4969995;28;20161;-88
2022/04/16 07:17:47;;;;;;;18.55;12.95;;;;;;;;;;4967746;28;20292;-88
2022/04/16 07:20:12;;;;;;;19.35;14.15;;;;;;;;;;4968725;28;20018;-88
2022/04/16 07:22:38;;;;;;;20.02;12.65;;;;;;;;;;4965253;28;20030;-89
2022/04/16 07:25:04;;;;;;;17.88;11.48;;;;;;;;;;4986292;28;20352;-91
2022/04/16 07:27:31;;;;;;;18.55;12.00;;;;;;;;;;4968162;28;20038;-90
2022/04/16 07:29:59;;;;;;;19.45;11.23;;;;;;;;;;4971015;28;20022;-89
2022/04/16 07:32:30;;;;;;;15.85;10.43;;;;;;;;;;4969012;28;20027;-91
2022/04/16 07:34:55;;;;;;;16.95;11.50;;;;;;;;;;4974822;28;20034;-92
2022/04/16 07:37:22;;;;;;;18.33;11.45;;;;;;;;;;4984768;28;20041;-89
2022/04/16 07:39:48;;;;;;;19.00;11.02;;;;;;;;;;4988747;28;20022;-86
2022/04/16 07:42:13;;;;;;;18.97;12.10;;;;;;;;;;4988879;28;20034;-91
2022/04/16 07:44:38;;;;;;;15.17;11.57;;;;;;;;;;4972744;28;20344;-90
2022/04/16 07:47:04;;;;;;;16.60;10.90;;;;;;;;;;4972430;28;20281;-90
2022/04/16 07:49:29;;;;;;;17.63;10.82;;;;;;;;;;4980545;28;20018;-86
2022/04/16 07:51:54;;;;;;;16.23;11.33;;;;;;;;;;4984723;28;20061;-88
2022/04/16 07:54:19;;;;;;;16.67;10.80;;;;;;;;;;4975756;28;20273;-89
2022/04/16 07:56:45;;;;;;;15.80;10.87;;;;;;;;;;4991722;28;20273;-88
2022/04/16 07:59:11;;;;;;;13.80;9.52;;;;;;;;;;4974537;28;20280;-91
2022/04/16 08:01:36;;;;;;;13.90;10.65;;;;;;;;;;4970876;28;20018;-90
2022/04/16 08:04:02;;;;;;;15.50;9.68;;;;;;;;;;4990232;28;20076;-90
2022/04/16 08:06:27;;;;;;;14.07;10.57;;;;;;;;;;4990324;28;20022;-90
2022/04/16 08:08:52;;;;;;;13.00;10.35;;;;;;;;;;4984908;28;20224;-89
2022/04/16 08:11:17;;;;;;;13.30;10.47;;;;;;;;;;4983616;28;20441;-89
2022/04/16 08:13:43;;;;;;;12.38;9.18;;;;;;;;;;4969099;28;20281;-88
2022/04/16 08:16:08;;;;;;;15.67;10.50;;;;;;;;;;4972765;28;20030;-87
2022/04/16 08:18:33;;;;;;;13.70;8.30;;;;;;;;;;4971845;28;20383;-89
2022/04/16 08:20:59;;;;;;;10.55;7.63;;;;;;;;;;4985802;28;20109;-91
2022/04/16 08:23:24;;;;;;;11.35;8.68;;;;;;;;;;4988135;28;20026;-90
2022/04/16 08:25:49;;;;;;;13.00;9.30;;;;;;;;;;4990290;28;20105;-90
2022/04/16 08:28:16;;;;;;;9.95;7.95;;;;;;;;;;4971112;28;20138;-91
2022/04/16 08:30:42;;;;;;;10.32;7.93;;;;;;;;;;4970035;28;20057;-89
2022/04/16 08:33:12;;;;;;;10.88;7.88;;;;;;;;;;4974323;28;20205;-89
2022/04/16 08:35:43;;;;;;;10.70;6.97;;;;;;;;;;4970854;28;20026;-89
2022/04/16 08:38:08;;;;;;;13.18;7.05;;;;;;;;;;4968427;28;20023;-89
2022/04/16 08:40:34;;;;;;;10.35;6.97;;;;;;;;;;4966054;28;20022;-86
2022/04/16 08:42:59;;;;;;;9.38;6.60;;;;;;;;;;4982321;28;20046;-89
2022/04/16 08:45:25;;;;;;;10.15;6.93;;;;;;;;;;4991517;28;20072;-88
2022/04/16 08:47:50;;;;;;;15.48;6.97;;;;;;;;;;4979250;28;21430;-87
2022/04/16 08:50:15;;;;;;;9.30;6.28;;;;;;;;;;4985040;28;20037;-86
2022/04/16 08:52:41;;;;;;;13.60;6.57;;;;;;;;;;4971291;28;20019;-88
2022/04/16 08:55:08;;;;;;;9.70;5.93;;;;;;;;;;4988717;28;20049;-89
2022/04/16 08:57:42;;;;;;;10.85;6.00;;;;;;;;;;4999150;28;20026;-90
2022/04/16 09:00:09;;;;;;;10.73;6.45;;;;;;;;;;4989576;28;20023;-87
2022/04/16 09:02:34;;;;;;;11.55;6.50;;;;;;;;;;4974331;28;20382;-87
2022/04/16 09:05:19;;;;;;;9.32;5.70;;;;;;;;;;4979425;28;20037;-88
2022/04/16 09:07:48;;;;;;;8.52;4.22;;;;;;;;;;4977019;28;20022;-85
2022/04/16 09:10:13;;;;;;;11.38;6.43;;;;;;;;;;4985624;28;20014;-86
2022/04/16 09:12:39;;;;;;;9.70;5.72;;;;;;;;;;4973415;28;20077;-89
2022/04/16 09:15:08;;;;;;;8.73;5.47;;;;;;;;;;4967980;28;20022;-87
2022/04/16 09:17:33;;;;;;;7.82;3.90;;;;;;;;;;4978191;28;20022;-88
2022/04/16 09:19:59;;;;;;;5.80;2.40;;;;;;;;;;5005589;28;20116;-86
2022/04/16 09:22:31;;;;;;;3.53;1.83;;;;;;;;;;4981737;28;20479;-85
2022/04/16 09:24:56;;;;;;;2.10;1.75;;;;;;;;;;4969507;28;20204;-86
2022/04/16 09:27:43;;;;;;;3.47;1.95;;;;;;;;;;4968012;28;20108;-87
2022/04/16 09:30:08;;;;;;;2.25;1.25;;;;;;;;;;4965701;28;20030;-86
2022/04/16 09:32:41;;;;;;;4.35;2.13;;;;;;;;;;4966129;28;20041;-88
2022/04/16 09:35:09;;;;;;;2.70;1.65;;;;;;;;;;4972984;28;20090;-88
2022/04/16 09:37:34;;;;;;;3.75;1.73;;;;;;;;;;4984749;28;20030;-88
2022/04/16 09:40:14;;;;;;;2.73;1.30;;;;;;;;;;4971005;28;20057;-88
2022/04/16 09:43:01;;;;;;;2.53;1.27;;;;;;;;;;5000019;28;20357;-87
2022/04/16 09:45:26;;;;;;;2.42;1.30;;;;;;;;;;4989963;28;20104;-87
2022/04/16 09:47:57;;;;;;;4.45;0.95;;;;;;;;;;4986181;28;20026;-88
2022/04/16 09:50:24;;;;;;;2.90;1.10;;;;;;;;;;4982376;28;20022;-86
2022/04/16 09:53:00;;;;;;;2.88;1.58;;;;;;;;;;5001435;28;20117;-85
2022/04/16 09:55:28;;;;;;;2.72;1.50;;;;;;;;;;4993478;28;20038;-85
2022/04/16 09:58:01;;;;;;;1.08;0.77;;;;;;;;;;5000673;28;20231;-84
2022/04/16 10:03:32;;;;;;;2.78;1.58;;;;;;;;;;4973344;28;20104;-86
2022/04/16 10:05:58;;;;;;;3.28;1.65;;;;;;;;;;5005904;28;20057;-87
2022/04/16 10:08:32;;;;;;;4.18;1.23;;;;;;;;;;4977842;28;20023;-85
2022/04/16 10:11:03;;;;;;;2.67;1.27;;;;;;;;;;4980991;28;20118;-88
2022/04/16 10:13:40;;;;;;;2.03;1.13;;;;;;;;;;4968282;28;20029;-90
2022/04/16 10:16:25;;;;;;;2.20;1.58;;;;;;;;;;4983127;28;20030;-88
2022/04/16 10:18:59;;;;;;;2.45;1.48;;;;;;;;;;4990973;28;20027;-90
2022/04/16 10:21:44;;;;;;;2.28;1.38;;;;;;;;;;4976397;28;20032;-89
2022/04/16 10:24:10;;;;;;;2.83;1.40;;;;;;;;;;4973515;28;20086;-89
2022/04/16 10:26:38;;;;;;;2.03;0.70;;;;;;;;;;4987801;28;20019;-87
2022/04/16 10:29:04;;;;;;;2.50;1.17;;;;;;;;;;4992906;28;20022;-87
2022/04/16 10:31:33;;;;;;;1.75;0.85;;;;;;;;;;4988746;28;20025;-89
2022/04/16 10:34:00;;;;;;;2.92;1.40;;;;;;;;;;4965591;28;20023;-87
2022/04/16 10:36:32;;;;;;;2.97;1.50;;;;;;;;;;4961816;28;20054;-90
2022/04/16 10:38:57;;;;;;;6.13;1.55;;;;;;;;;;4990275;23;20043;-66
2022/04/16 10:41:25;;;;;;;2.30;1.60;;;;;;;;;;4971153;28;20076;-66
2022/04/16 10:43:59;;;;;;;2.45;1.52;;;;;;;;;;4974418;28;20026;-66
2022/04/16 10:46:38;;;;;;;3.67;1.40;;;;;;;;;;4973058;28;20053;-66
2022/04/16 10:49:06;;;;;;;2.80;1.50;;;;;;;;;;4964280;28;20018;-67
2022/04/16 10:51:33;;;;;;;3.13;1.35;;;;;;;;;;4972148;28;20034;-67
2022/04/16 10:54:06;;;;;;;3.20;1.95;;;;;;;;;;4974723;28;20029;-66
2022/04/16 10:56:31;;;;;;;2.80;1.88;;;;;;;;;;4969898;28;21164;-67
2022/04/16 10:59:00;;;;;;;3.05;1.75;;;;;;;;;;4969111;28;20752;-67
2022/04/16 11:01:26;;;;;;;5.72;1.80;;;;;;;;;;4973202;28;20026;-66
2022/04/16 11:03:52;;;;;;;3.33;1.75;;;;;;;;;;4971606;28;20026;-67
2022/04/16 11:06:18;;;;;;;3.67;1.98;;;;;;;;;;4971341;28;20019;-66
2022/04/16 11:08:45;;;;;;;4.20;1.92;;;;;;;;;;4976137;28;20517;-66
2022/04/16 11:11:11;;;;;;;4.10;2.05;;;;;;;;;;4980533;28;20022;-66
2022/04/16 11:13:37;;;;;;;2.97;1.85;;;;;;;;;;4976481;28;20026;-66
2022/04/16 11:16:02;;;;;;;2.83;2.03;;;;;;;;;;4981433;28;20537;-67
2022/04/16 11:18:44;;;;;;;3.58;2.15;;;;;;;;;;4990636;28;20026;-66
2022/04/16 11:21:13;;;;;;;4.00;1.70;;;;;;;;;;4972945;28;20030;-66
2022/04/16 11:23:39;;;;;;;12.50;2.15;;;;;;;;;;4979887;28;20018;-66
2022/04/16 11:34:22;;;;;;;3.72;2.10;;;;;;;;;;4968573;28;20034;-66
2022/04/16 11:36:49;;;;;;;5.50;2.70;;;;;;;;;;4968665;28;20054;-66
2022/04/16 11:39:17;;;;;;;2.80;1.63;;;;;;;;;;4968913;28;20290;-66
2022/04/16 11:41:46;;;;;;;4.82;1.95;;;;;;;;;;4973406;28;20259;-66
2022/04/16 11:44:11;;;;;;;3.97;2.25;;;;;;;;;;4971607;28;20019;-66
2022/04/16 11:46:38;;;;;;;3.77;2.20;;;;;;;;;;4969191;28;20529;-66
2022/04/16 11:49:03;;;;;;;6.55;2.63;;;;;;;;;;4973859;28;20281;-66
2022/04/16 11:51:29;;;;;;;3.88;2.08;;;;;;;;;;4971124;28;20097;-66
2022/04/16 11:53:54;;;;;;;4.50;2.63;;;;;;;;;;4971791;28;20149;-66
2022/04/16 11:56:20;;;;;;;2.67;1.80;;;;;;;;;;4971510;28;20274;-66
2022/04/16 11:58:48;;;;;;;4.90;2.47;;;;;;;;;;4975872;28;20023;-66
2022/04/16 12:01:13;;;;;;;4.05;2.17;;;;;;;;;;4967949;28;20067;-66
2022/04/16 12:03:39;;;;;;;4.57;2.17;;;;;;;;;;4965618;28;20054;-66
2022/04/16 12:06:10;;;;;;;5.75;1.50;;;;;;;;;;4959806;28;20027;-66
2022/04/16 12:08:36;;;;;;;3.78;2.08;;;;;;;;;;4967632;28;20033;-67
2022/04/16 12:11:02;;;;;;;2.22;1.17;;;;;;;;;;4971729;28;20018;-67
2022/04/16 12:13:33;;;;;;;4.90;2.15;;;;;;;;;;4969846;28;20085;-66
2022/04/16 12:16:02;;;;;;;3.97;2.55;;;;;;;;;;4973853;28;20019;-66
2022/04/16 12:18:33;;;;;;;4.88;2.53;;;;;;;;;;4977145;28;20125;-66
2022/04/16 12:21:04;;;;;;;3.80;2.13;;;;;;;;;;4975021;28;20035;-66
2022/04/16 12:23:29;;;;;;;;;;;;;;;;;;4981684;28;20048;-66
2022/04/16 12:26:05;;;;;;;5.72;1.95;;;;;;;;;;4975834;28;19909;-66
2022/04/16 12:28:37;;;;;;;5.38;2.25;;;;;;;;;;4975319;28;20537;-66
2022/04/16 12:31:02;;;;;;;5.50;2.10;;;;;;;;;;4972016;28;20015;-66
2022/04/16 12:33:27;;;;;;;3.30;1.83;;;;;;;;;;4969573;28;20089;-66
2022/04/16 12:35:56;;;;;;;6.00;2.17;;;;;;;;;;4975095;28;20423;-66
2022/04/16 12:38:21;;;;;;;5.53;2.10;;;;;;;;;;4974496;28;20458;-66
2022/04/16 12:40:46;;;;;;;3.45;1.77;;;;;;;;;;4974296;28;20049;-66
2022/04/16 12:43:11;;;;;;;3.43;1.97;;;;;;;;;;4971520;28;20045;-66
2022/04/16 12:45:36;;;;;;;3.55;2.08;;;;;;;;;;4975601;28;20369;-66
2022/04/16 12:48:02;;;;;;;3.50;1.53;;;;;;;;;;4976283;28;20098;-66
2022/04/16 12:50:29;;;;;;;2.55;1.40;;;;;;;;;;4976163;28;20506;-66
2022/04/16 12:52:55;;;;;;;4.13;2.00;;;;;;;;;;4974484;28;20022;-66
2022/04/16 12:55:20;;;;;;;2.70;1.52;;;;;;;;;;4982473;28;20030;-66
2022/04/16 12:57:46;;;;;;;4.00;1.90;;;;;;;;;;4965106;28;20026;-66
2022/04/16 13:00:14;;;;;;;4.00;1.60;;;;;;;;;;4976866;28;20058;-66
2022/04/16 13:02:43;;;;;;;6.00;1.77;;;;;;;;;;4969189;28;20479;-66
2022/04/16 13:05:09;;;;;;;2.30;1.25;;;;;;;;;;4977071;28;20402;-66
2022/04/16 13:07:35;;;;;;;2.58;1.10;;;;;;;;;;4972998;28;20022;-66
2022/04/16 13:10:00;;;;;;;1.58;1.15;;;;;;;;;;4975216;28;20023;-66
2022/04/16 13:12:25;;;;;;;3.40;1.40;;;;;;;;;;4973718;28;20099;-66
2022/04/16 13:14:50;;;;;;;4.28;1.80;;;;;;;;;;4975672;28;20071;-66
2022/04/16 13:17:16;;;;;;;3.78;1.70;;;;;;;;;;4977779;28;20027;-66
2022/04/16 13:19:41;;;;;;;2.40;1.40;;;;;;;;;;4968619;28;20543;-66
2022/04/16 13:22:07;;;;;;;2.95;1.80;;;;;;;;;;4977878;28;20282;-66
2022/04/16 13:24:32;;;;;;;3.53;1.50;;;;;;;;;;4977087;28;20467;-66
2022/04/16 13:26:57;;;;;;;3.97;1.60;;;;;;;;;;4972202;28;20019;-66
2022/04/16 13:29:23;;;;;;;4.23;2.10;;;;;;;;;;4969672;28;20423;-66
2022/04/16 13:31:48;;;;;;;2.78;1.38;;;;;;;;;;4967977;28;20106;-66
2022/04/16 13:34:13;;;;;;;3.23;1.60;;;;;;;;;;4971228;28;20073;-66
2022/04/16 13:36:38;;;;;;;3.10;1.70;;;;;;;;;;4969509;28;20333;-66
2022/04/16 13:39:05;;;;;;;2.83;1.50;;;;;;;;;;4964332;28;20308;-66
2022/04/16 13:41:39;;;;;;;2.70;1.60;;;;;;;;;;4968690;28;20274;-66
2022/04/16 13:44:10;;;;;;;2.85;1.60;;;;;;;;;;4968309;28;20029;-66
2022/04/16 13:46:35;;;;;;;2.70;1.60;;;;;;;;;;4966178;28;20030;-66
2022/04/16 13:49:03;;;;;;;2.65;1.70;;;;;;;;;;4968118;28;20018;-67
2022/04/16 13:51:28;;;;;;;6.28;1.65;;;;;;;;;;4972427;28;20065;-66
2022/04/16 13:53:53;;;;;;;3.13;1.37;;;;;;;;;;4973860;28;20014;-66
2022/04/16 13:56:19;;;;;;;4.05;1.73;;;;;;;;;;4974489;28;20109;-67
2022/04/16 13:58:44;;;;;;;3.25;1.60;;;;;;;;;;4974347;28;20019;-66
2022/04/16 14:01:13;;;;;;;2.40;1.15;;;;;;;;;;4969673;28;20023;-66
2022/04/16 14:03:38;;;;;;;2.75;1.40;;;;;;;;;;4970284;28;20022;-66
2022/04/16 14:06:03;;;;;;;1.63;1.00;;;;;;;;;;4970450;28;20027;-66
2022/04/16 14:08:29;;;;;;;3.13;1.20;;;;;;;;;;4968029;28;20026;-66
2022/04/16 14:10:56;;;;;;;3.47;1.63;;;;;;;;;;4968046;28;20023;-66
2022/04/16 14:13:21;;;;;;;3.17;1.48;;;;;;;;;;4971545;28;20030;-66
2022/04/16 14:15:46;;;;;;;2.88;1.45;;;;;;;;;;4961522;28;20403;-67
2022/04/16 14:18:12;;;;;;;5.20;1.73;;;;;;;;;;4969944;28;20278;-67
2022/04/16 14:20:37;;;;;;;2.28;0.88;;;;;;;;;;4969660;28;20015;-67
2022/04/16 14:23:02;;;;;;;5.95;1.33;;;;;;;;;;4971921;28;20499;-67
2022/04/16 14:25:28;;;;;;;2.70;1.65;;;;;;;;;;4978958;28;20053;-67
2022/04/16 14:27:54;;;;;;;2.70;1.60;;;;;;;;;;5166822;23;20417;-69
2022/04/16 14:30:20;;;;;;;2.22;1.45;;;;;;;;;;4997917;28;20031;-68
2022/04/16 14:32:45;;;;;;;2.15;1.17;;;;;;;;;;4996095;28;20130;-69
2022/04/16 14:35:11;;;;;;;2.73;1.10;;;;;;;;;;4989337;28;20470;-70
2022/04/16 14:37:36;;;;;;;3.95;1.60;;;;;;;;;;4995420;28;20312;-71
2022/04/16 14:40:02;;;;;;;3.27;1.47;;;;;;;;;;4990821;28;20073;-69
2022/04/16 14:42:28;;;;;;;2.58;1.23;;;;;;;;;;4983826;28;20306;-68
2022/04/16 14:44:53;;;;;;;7.07;2.45;;;;;;;;;;5001819;28;20127;-70
2022/04/16 14:47:19;;;;;;;3.47;1.25;;;;;;;;;;5001492;28;20024;-69
2022/04/16 14:49:44;;;;;;;3.58;1.30;;;;;;;;;;4994110;28;20030;-70